Time;durP1;ratioP1;P1;durP2;ratioP2;P2;SDS_P1;SDS_P2;PMS_P1;PMS_P2;Temp;Humidity;BMP_temperature;BMP_pressure;BME280_temperature;BME280_humidity;BME280_pressure;Samples;Min_cycle;Max_cycle;Signal;HPM_P1;HPM_P2
2022/07/12 00:00:57;;;;;;;8.00;2.75;;;;;;;15.52;100.00;96123.91;5051548;28;20048;-77
2022/07/12 00:03:22;;;;;;;3.90;2.63;;;;;;;15.49;100.00;96124.50;5047777;28;20124;-77
2022/07/12 00:05:48;;;;;;;4.60;2.90;;;;;;;15.58;100.00;96128.06;5044805;28;20076;-77
2022/07/12 00:08:13;;;;;;;5.95;3.00;;;;;;;15.53;100.00;96120.16;5041872;28;20045;-78
2022/07/12 00:10:39;;;;;;;4.70;3.00;;;;;;;15.56;100.00;96132.88;5041293;28;20041;-78
2022/07/12 00:13:04;;;;;;;4.22;3.05;;;;;;;15.50;100.00;96128.69;5051450;28;20423;-77
2022/07/12 00:15:30;;;;;;;4.75;2.80;;;;;;;15.49;100.00;96135.88;5045688;28;20052;-78
2022/07/12 00:17:55;;;;;;;4.78;2.60;;;;;;;15.41;100.00;96124.06;5041194;28;20147;-78
2022/07/12 00:20:21;;;;;;;8.82;2.78;;;;;;;15.35;100.00;96137.66;5044471;28;20116;-78
2022/07/12 00:22:47;;;;;;;3.75;2.40;;;;;;;15.32;100.00;96131.03;5041674;28;20048;-79
2022/07/12 00:25:13;;;;;;;5.97;3.00;;;;;;;15.33;100.00;96135.28;5051966;28;20049;-77
2022/07/12 00:27:40;;;;;;;5.47;2.78;;;;;;;15.29;100.00;96134.28;5048898;28;20102;-78
2022/07/12 00:30:07;;;;;;;7.68;2.70;;;;;;;15.31;100.00;96140.06;5047622;28;20526;-78
2022/07/12 00:32:33;;;;;;;3.63;2.55;;;;;;;15.22;100.00;96131.19;5049921;28;20049;-77
2022/07/12 00:34:59;;;;;;;4.75;2.78;;;;;;;15.36;100.00;96136.59;5049622;28;20064;-78
2022/07/12 00:37:24;;;;;;;4.57;2.60;;;;;;;15.24;100.00;96134.31;5048827;28;20505;-77
2022/07/12 00:39:51;;;;;;;5.15;2.92;;;;;;;15.19;100.00;96131.75;5049578;28;20095;-77
2022/07/12 00:42:17;;;;;;;4.90;2.95;;;;;;;15.18;100.00;96135.47;5052087;28;20037;-78
2022/07/12 00:44:42;;;;;;;4.13;2.65;;;;;;;14.95;100.00;96132.53;5047310;28;20098;-77
2022/07/12 00:47:19;;;;;;;4.32;2.92;;;;;;;15.20;100.00;96138.59;5051987;28;20037;-77
2022/07/12 00:49:44;;;;;;;4.85;2.88;;;;;;;15.13;100.00;96136.31;5055482;28;20095;-78
2022/07/12 00:52:10;;;;;;;5.00;2.95;;;;;;;15.05;100.00;96137.72;5047550;28;20053;-78
2022/07/12 00:54:36;;;;;;;7.97;3.33;;;;;;;15.15;100.00;96130.72;5044646;28;20064;-78
2022/07/12 00:57:03;;;;;;;4.43;3.10;;;;;;;15.06;100.00;96136.66;5041654;28;20038;-79
2022/07/12 00:59:28;;;;;;;4.80;2.83;;;;;;;15.04;100.00;96136.16;5048261;28;20045;-79
2022/07/12 01:01:53;;;;;;;4.88;2.90;;;;;;;15.05;100.00;96134.28;5046541;28;20418;-78
2022/07/12 01:04:19;;;;;;;5.43;2.78;;;;;;;15.07;100.00;96127.63;5043919;28;20506;-77
2022/07/12 01:06:45;;;;;;;5.70;3.13;;;;;;;15.06;100.00;96123.41;5046752;28;20094;-78
2022/07/12 01:09:11;;;;;;;4.72;3.17;;;;;;;14.98;100.00;96126.66;5048253;28;20037;-78
2022/07/12 01:11:37;;;;;;;4.15;2.85;;;;;;;14.86;100.00;96131.56;5041502;28;20044;-78
2022/07/12 01:14:03;;;;;;;5.60;3.17;;;;;;;14.81;100.00;96131.63;5040399;28;20045;-78
2022/07/12 01:16:31;;;;;;;4.95;3.05;;;;;;;14.76;100.00;96131.69;5047387;28;20040;-77
2022/07/12 01:18:58;;;;;;;5.32;2.85;;;;;;;14.83;100.00;96134.78;5043723;28;20045;-77
2022/07/12 01:21:27;;;;;;;4.22;2.88;;;;;;;14.73;100.00;96125.88;5048404;28;20045;-77
2022/07/12 01:23:53;;;;;;;3.78;2.53;;;;;;;14.69;100.00;96130.13;5048981;28;20056;-77
2022/07/12 01:26:19;;;;;;;4.80;2.70;;;;;;;14.65;100.00;96141.56;5046300;28;20076;-77
2022/07/12 01:28:45;;;;;;;4.55;2.92;;;;;;;14.60;100.00;96142.41;5039935;28;20045;-77
2022/07/12 01:31:10;;;;;;;4.45;2.90;;;;;;;14.57;100.00;96145.59;5045601;28;20040;-78
2022/07/12 01:33:36;;;;;;;5.25;3.10;;;;;;;14.49;100.00;96140.91;5049852;28;20414;-78
2022/07/12 01:36:02;;;;;;;4.80;2.83;;;;;;;14.43;100.00;96142.03;5045142;28;20067;-77
2022/07/12 01:38:28;;;;;;;5.43;3.03;;;;;;;14.36;100.00;96143.13;5046300;28;20550;-77
2022/07/12 01:40:54;;;;;;;4.55;2.80;;;;;;;14.34;100.00;96133.88;5043993;28;20033;-77
2022/07/12 01:43:19;;;;;;;4.47;3.10;;;;;;;14.32;100.00;96134.16;5047115;28;20044;-77
2022/07/12 01:45:44;;;;;;;4.70;3.08;;;;;;;14.23;100.00;96133.16;5040592;28;20037;-78
2022/07/12 01:48:10;;;;;;;6.32;3.00;;;;;;;14.12;100.00;96131.66;5042974;28;20037;-78
2022/07/12 01:50:36;;;;;;;5.97;2.90;;;;;;;14.07;100.00;96129.06;5039436;28;20044;-77
2022/07/12 01:53:05;;;;;;;5.57;3.15;;;;;;;14.10;100.00;96136.47;5048290;28;20514;-78
2022/07/12 01:55:31;;;;;;;8.32;3.00;;;;;;;13.96;100.00;96129.13;5040871;28;20045;-78
2022/07/12 01:57:57;;;;;;;4.97;3.08;;;;;;;13.85;100.00;96138.22;5048353;28;20475;-77
2022/07/12 02:00:23;;;;;;;6.82;3.17;;;;;;;13.84;100.00;96131.34;5048578;28;20052;-78
2022/07/12 02:02:48;;;;;;;8.68;4.07;;;;;;;13.83;100.00;96142.97;5045000;28;20120;-77
2022/07/12 02:05:14;;;;;;;7.28;3.38;;;;;;;13.77;100.00;96133.50;5046820;28;20495;-77
2022/07/12 02:07:39;;;;;;;8.20;3.20;;;;;;;13.71;100.00;96137.25;5038967;28;20037;-77
2022/07/12 02:10:07;;;;;;;5.15;3.30;;;;;;;13.69;100.00;96133.00;5045551;28;20041;-77
2022/07/12 02:12:33;;;;;;;6.35;3.50;;;;;;;13.75;100.00;96138.25;5047757;28;20076;-78
2022/07/12 02:14:58;;;;;;;4.60;2.97;;;;;;;13.79;100.00;96134.00;5046737;28;20065;-77
2022/07/12 02:17:23;;;;;;;5.75;3.45;;;;;;;13.78;100.00;96127.94;5047639;28;20072;-78
2022/07/12 02:19:49;;;;;;;9.48;3.10;;;;;;;13.80;100.00;96132.94;5046237;28;20044;-77
2022/07/12 02:22:14;;;;;;;5.85;3.30;;;;;;;13.75;100.00;96127.69;5046411;28;20035;-78
2022/07/12 02:24:40;;;;;;;5.93;3.55;;;;;;;13.72;100.00;96128.22;5040943;28;20033;-78
2022/07/12 02:27:06;;;;;;;4.93;3.03;;;;;;;13.66;100.00;96120.34;5045319;28;20033;-78
2022/07/12 02:29:32;;;;;;;7.95;3.47;;;;;;;13.64;100.00;96126.97;5039067;28;20045;-78
2022/07/12 02:31:57;;;;;;;5.03;3.03;;;;;;;13.61;100.00;96123.00;5047816;28;20091;-78
2022/07/12 02:34:23;;;;;;;5.97;3.22;;;;;;;13.54;100.00;96122.50;5048200;28;20048;-77
2022/07/12 02:36:48;;;;;;;5.10;2.92;;;;;;;13.52;100.00;96124.66;5041282;28;20418;-78
2022/07/12 02:39:14;;;;;;;5.30;3.40;;;;;;;13.42;100.00;96127.31;5046138;28;20125;-77
2022/07/12 02:41:39;;;;;;;5.40;3.13;;;;;;;13.50;100.00;96127.56;5046584;28;20045;-78
2022/07/12 02:44:05;;;;;;;5.03;3.17;;;;;;;13.45;100.00;96134.75;5047162;28;20041;-77
2022/07/12 02:46:30;;;;;;;5.88;3.40;;;;;;;13.39;100.00;96133.16;5048200;28;20037;-78
2022/07/12 02:48:57;;;;;;;7.28;3.50;;;;;;;13.32;100.00;96126.28;5045974;28;20044;-77
2022/07/12 02:51:23;;;;;;;6.72;3.45;;;;;;;13.27;100.00;96128.94;5044065;28;20053;-77
2022/07/12 02:53:48;;;;;;;4.45;2.95;;;;;;;13.24;100.00;96118.91;5042824;28;20033;-77
2022/07/12 02:56:14;;;;;;;6.05;3.45;;;;;;;13.28;100.00;96135.03;5036211;28;20045;-77
2022/07/12 02:58:39;;;;;;;6.00;3.50;;;;;;;13.27;100.00;96128.94;5046701;28;20624;-76
2022/07/12 03:01:05;;;;;;;7.43;3.50;;;;;;;13.22;100.00;96133.50;5047350;28;20036;-77
2022/07/12 03:03:31;;;;;;;6.32;3.22;;;;;;;13.19;100.00;96121.59;5045936;28;20132;-76
2022/07/12 03:05:57;;;;;;;5.85;3.40;;;;;;;13.10;100.00;96133.78;5042636;28;20095;-76
2022/07/12 03:08:22;;;;;;;5.80;3.40;;;;;;;13.00;100.00;96129.31;5040950;28;20048;-75
2022/07/12 03:10:48;;;;;;;9.07;3.20;;;;;;;13.00;100.00;96130.13;5039862;28;20046;-76
2022/07/12 03:13:13;;;;;;;6.15;3.30;;;;;;;12.91;100.00;96131.72;5047949;28;20079;-76
2022/07/12 03:15:39;;;;;;;5.05;3.25;;;;;;;12.86;100.00;96129.09;5047867;28;20049;-77
2022/07/12 03:18:04;;;;;;;6.00;3.15;;;;;;;12.84;100.00;96136.50;5046243;28;20044;-76
2022/07/12 03:20:31;;;;;;;5.97;3.60;;;;;;;12.78;100.00;96135.69;5048576;28;20041;-77
2022/07/12 03:22:57;;;;;;;6.03;3.65;;;;;;;12.79;100.00;96139.94;5049556;28;20486;-77
2022/07/12 03:25:23;;;;;;;7.03;3.60;;;;;;;12.76;100.00;96131.78;5048888;28;20041;-77
2022/07/12 03:27:49;;;;;;;7.45;3.30;;;;;;;12.76;100.00;96137.06;5048271;28;20040;-77
2022/07/12 03:30:15;;;;;;;5.70;3.53;;;;;;;12.73;100.00;96140.19;5048724;28;20108;-77
2022/07/12 03:32:41;;;;;;;6.15;3.60;;;;;;;12.65;100.00;96144.97;5035813;28;20042;-77
2022/07/12 03:35:07;;;;;;;5.55;3.40;;;;;;;12.59;100.00;96140.75;5041522;28;20044;-77
2022/07/12 03:37:53;;;;;;;6.68;3.40;;;;;;;12.63;100.00;96139.19;5048583;28;20515;-76
2022/07/12 03:40:21;;;;;;;5.88;3.80;;;;;;;12.60;100.00;96147.63;5040586;28;20068;-77
2022/07/12 03:42:47;;;;;;;5.68;3.50;;;;;;;12.63;100.00;96141.81;5050761;28;20041;-78
2022/07/12 03:45:13;;;;;;;8.15;3.30;;;;;;;12.57;100.00;96137.63;5049483;28;20065;-77
2022/07/12 03:47:39;;;;;;;5.82;3.60;;;;;;;12.57;100.00;96142.88;5043013;28;20651;-77
2022/07/12 03:50:08;;;;;;;6.03;3.70;;;;;;;12.63;100.00;96151.59;5046070;28;20037;-78
2022/07/12 03:52:34;;;;;;;6.68;4.07;;;;;;;12.62;100.00;96145.50;5050240;28;20041;-78
2022/07/12 03:55:02;;;;;;;6.30;3.75;;;;;;;12.59;100.00;96151.31;5049428;28;20281;-77
2022/07/12 03:57:28;;;;;;;6.35;3.83;;;;;;;12.56;100.00;96146.59;5048539;28;20056;-78
2022/07/12 03:59:54;;;;;;;7.25;3.85;;;;;;;12.55;100.00;96152.91;5046444;28;20041;-78
2022/07/12 04:02:20;;;;;;;7.97;4.30;;;;;;;12.62;100.00;96160.56;5049241;28;20068;-78
2022/07/12 04:04:45;;;;;;;5.72;3.80;;;;;;;12.66;100.00;96156.34;5050611;28;20037;-78
2022/07/12 04:07:11;;;;;;;6.15;4.03;;;;;;;12.80;100.00;96159.22;5042218;28;20045;-78
2022/07/12 04:09:36;;;;;;;5.88;3.72;;;;;;;12.78;100.00;96158.69;5047248;28;20118;-78
2022/07/12 04:12:02;;;;;;;7.43;4.03;;;;;;;12.82;100.00;96165.03;5040370;28;20651;-77
2022/07/12 04:14:30;;;;;;;8.38;4.40;;;;;;;12.82;100.00;96165.03;5050629;28;20041;-77
2022/07/12 04:16:56;;;;;;;6.80;3.95;;;;;;;12.87;100.00;96172.94;5052664;28;20044;-77
2022/07/12 04:19:31;;;;;;;6.90;4.13;;;;;;;12.96;100.00;96171.34;5048322;28;20787;-77
2022/07/12 04:21:57;;;;;;;8.32;4.10;;;;;;;13.01;100.00;96167.88;5047981;28;20548;-78
2022/07/12 04:24:22;;;;;;;8.55;4.90;;;;;;;13.04;100.00;96171.84;5050382;28;20514;-77
2022/07/12 04:26:48;;;;;;;8.20;4.85;;;;;;;13.10;100.00;96173.41;5051048;28;20048;-78
2022/07/12 04:29:15;;;;;;;7.45;4.60;;;;;;;13.24;100.00;96174.41;5041327;28;20116;-78
2022/07/12 04:31:41;;;;;;;8.70;4.30;;;;;;;13.22;100.00;96168.63;5048785;28;20549;-77
2022/07/12 04:34:06;;;;;;;7.95;4.45;;;;;;;13.23;100.00;96164.94;5045951;28;20033;-78
2022/07/12 04:36:32;;;;;;;7.05;4.38;;;;;;;13.26;100.00;96164.38;5048504;28;20613;-77
2022/07/12 04:38:58;;;;;;;7.10;4.50;;;;;;;13.27;100.00;96170.44;5048915;28;20048;-77
2022/07/12 04:41:23;;;;;;;8.98;4.45;;;;;;;13.32;100.00;96173.88;5045278;28;20037;-77
2022/07/12 04:43:49;;;;;;;10.98;4.13;;;;;;;13.33;100.00;96164.88;5047282;28;20033;-77
2022/07/12 04:46:15;;;;;;;8.25;4.43;;;;;;;13.32;100.00;96168.59;5050669;28;20585;-77
2022/07/12 04:48:40;;;;;;;6.97;4.70;;;;;;;13.34;100.00;96170.97;5048218;28;20033;-77
2022/07/12 04:51:06;;;;;;;8.70;4.63;;;;;;;13.40;100.00;96163.81;5047823;28;20033;-78
2022/07/12 04:53:31;;;;;;;8.55;4.68;;;;;;;13.47;100.00;96159.03;5049329;28;20049;-77
2022/07/12 04:55:57;;;;;;;7.22;4.45;;;;;;;13.58;100.00;96165.88;5047884;28;20045;-78
2022/07/12 04:58:23;;;;;;;7.13;4.68;;;;;;;13.65;100.00;96171.66;5051665;28;20720;-77
2022/07/12 05:00:50;;;;;;;8.75;5.10;;;;;;;13.69;100.00;96167.41;5050410;28;20033;-78
2022/07/12 05:03:15;;;;;;;9.20;5.25;;;;;;;13.77;100.00;96183.75;5053713;28;20091;-78
2022/07/12 05:05:41;;;;;;;9.32;4.95;;;;;;;13.83;100.00;96172.06;5047715;28;20037;-76
2022/07/12 05:08:06;;;;;;;8.15;4.95;;;;;;;13.98;100.00;96179.16;5045712;28;20487;-77
2022/07/12 05:10:32;;;;;;;11.82;4.93;;;;;;;13.99;100.00;96181.53;5048494;28;20045;-75
2022/07/12 05:12:57;;;;;;;9.20;5.13;;;;;;;14.09;100.00;96185.16;5074191;28;20037;-75
2022/07/12 05:15:23;;;;;;;11.27;5.63;;;;;;;14.07;100.00;96187.28;5073253;28;20123;-75
2022/07/12 05:17:48;;;;;;;8.93;5.00;;;;;;;14.20;100.00;96181.38;5075843;28;20319;-74
2022/07/12 05:20:14;;;;;;;8.55;4.85;;;;;;;14.26;100.00;96180.25;5073727;28;20052;-75
2022/07/12 05:22:41;;;;;;;9.93;5.68;;;;;;;14.23;100.00;96175.53;5076272;28;20092;-75
2022/07/12 05:25:08;;;;;;;10.65;6.30;;;;;;;14.37;100.00;96176.47;5069234;28;20056;-75
2022/07/12 05:27:34;;;;;;;10.98;6.20;;;;;;;14.47;100.00;96180.13;5068625;28;20055;-74
2022/07/12 05:30:00;;;;;;;12.48;7.10;;;;;;;14.48;100.00;96179.03;5075022;28;21180;-75
2022/07/12 05:32:26;;;;;;;12.93;6.50;;;;;;;14.58;100.00;96186.88;5074904;28;20063;-75
2022/07/12 05:34:51;;;;;;;10.52;6.40;;;;;;;14.68;100.00;96186.84;5068178;28;20029;-75
2022/07/12 05:37:17;;;;;;;10.88;6.57;;;;;;;14.66;100.00;96181.03;5065672;28;20021;-75
2022/07/12 05:39:42;;;;;;;11.35;6.38;;;;;;;14.78;100.00;96187.81;5074940;28;20067;-76
2022/07/12 05:42:08;;;;;;;12.38;7.00;;;;;;;14.81;100.00;96195.22;5066190;28;20052;-76
2022/07/12 05:44:34;;;;;;;11.73;6.38;;;;;;;14.84;100.00;96194.66;5074587;28;20033;-75
2022/07/12 05:46:59;;;;;;;13.13;6.35;;;;;;;14.78;100.00;96185.16;5075167;28;20049;-76
2022/07/12 05:49:25;;;;;;;14.05;6.50;;;;;;;14.86;100.00;96197.81;5071073;28;20057;-78
2022/07/12 05:54:35;;;;;;;10.43;6.40;;;;;;;15.00;100.00;96204.03;5053611;28;20056;-78
2022/07/12 05:57:00;;;;;;;9.82;5.47;;;;;;;14.98;100.00;96210.69;5048295;28;20033;-79
2022/07/12 05:59:28;;;;;;;10.40;5.28;;;;;;;15.02;100.00;96217.78;5054926;28;20041;-79
2022/07/12 06:01:53;;;;;;;13.43;6.03;;;;;;;15.02;100.00;96212.50;5053889;28;20048;-78
2022/07/12 06:04:19;;;;;;;10.52;5.90;;;;;;;15.03;100.00;96214.09;5055528;28;20073;-78
2022/07/12 06:06:44;;;;;;;10.60;5.50;;;;;;;15.00;100.00;96209.34;5049780;28;20095;-77
2022/07/12 06:09:10;;;;;;;9.65;5.30;;;;;;;15.26;100.00;96217.03;5048276;28;20115;-80
2022/07/12 06:11:35;;;;;;;9.80;5.18;;;;;;;15.25;100.00;96226.06;5037342;28;20049;-78
2022/07/12 06:14:01;;;;;;;8.48;5.07;;;;;;;15.48;100.00;96218.41;5050132;28;20045;-78
2022/07/12 06:16:26;;;;;;;9.43;5.60;;;;;;;15.49;100.00;96217.34;5048769;28;20503;-78
2022/07/12 06:18:52;;;;;;;8.55;4.93;;;;;;;15.49;100.00;96210.16;5047400;28;20040;-79
2022/07/12 06:21:17;;;;;;;9.23;5.20;;;;;;;15.61;100.00;96212.38;5047013;28;20045;-78
2022/07/12 06:23:42;;;;;;;9.05;5.20;;;;;;;15.62;100.00;96221.94;5045232;28;20049;-84
2022/07/12 06:26:08;;;;;;;9.00;4.70;;;;;;;15.59;100.00;96219.84;5043923;28;20507;-82
2022/07/12 06:28:33;;;;;;;8.93;5.28;;;;;;;15.72;100.00;96219.16;5044233;28;20068;-82
2022/07/12 06:31:01;;;;;;;8.25;4.85;;;;;;;15.70;100.00;96216.00;5041046;28;20111;-80
2022/07/12 06:33:26;;;;;;;8.82;4.97;;;;;;;15.73;100.00;96223.41;5047522;28;20574;-79
2022/07/12 06:35:52;;;;;;;7.10;4.22;;;;;;;15.79;100.00;96215.38;5046959;28;20049;-79
2022/07/12 06:38:17;;;;;;;10.05;4.30;;;;;;;15.82;100.00;96212.19;5045627;28;20033;-80
2022/07/12 06:40:43;;;;;;;7.95;4.68;;;;;;;15.85;100.00;96216.91;5038049;28;20053;-78
2022/07/12 06:43:12;;;;;;;6.78;4.07;;;;;;;15.75;100.00;96218.59;5044273;28;20033;-79
2022/07/12 06:45:38;;;;;;;7.68;4.00;;;;;;;15.74;100.00;96217.00;5047809;28;20080;-82
2022/07/12 06:48:05;;;;;;;6.40;3.83;;;;;;;15.98;100.00;96216.19;5043022;28;20037;-81
2022/07/12 06:50:30;;;;;;;6.40;4.07;;;;;;;16.09;98.66;96220.31;5046666;28;20049;-78
2022/07/12 06:52:56;;;;;;;6.07;3.88;;;;;;;16.06;99.00;96212.91;5043099;28;20387;-78
2022/07/12 06:55:22;;;;;;;5.05;3.13;;;;;;;16.28;96.84;96214.19;5046057;28;20037;-79
2022/07/12 06:57:51;;;;;;;6.10;3.40;;;;;;;16.18;97.43;96215.13;5044970;28;20495;-80
2022/07/12 07:00:16;;;;;;;6.22;3.17;;;;;;;16.25;97.48;96217.44;5038044;28;20124;-82
2022/07/12 07:02:42;;;;;;;7.10;3.20;;;;;;;16.47;98.00;96210.72;5044070;28;20044;-77
2022/07/12 07:05:07;;;;;;;5.72;3.53;;;;;;;16.45;95.78;96209.16;5050945;28;20040;-80
2022/07/12 07:07:34;;;;;;;5.70;3.33;;;;;;;16.51;96.57;96206.44;5051868;28;20075;-77
2022/07/12 07:10:00;;;;;;;6.82;3.58;;;;;;;16.49;96.55;96208.56;5046830;28;20626;-77
2022/07/12 07:12:25;;;;;;;6.55;3.67;;;;;;;16.43;98.04;96211.31;5042137;28;20110;-77
2022/07/12 07:14:51;;;;;;;6.10;3.25;;;;;;;16.57;97.66;96211.34;5050025;28;20044;-77
2022/07/12 07:17:18;;;;;;;5.78;3.33;;;;;;;16.80;94.86;96220.28;5051615;28;20029;-76
2022/07/12 07:19:44;;;;;;;7.95;4.10;;;;;;;16.91;92.85;96226.25;5050910;28;20076;-77
2022/07/12 07:22:10;;;;;;;10.27;3.85;;;;;;;16.77;94.32;96215.53;5039163;28;20045;-78
2022/07/12 07:24:36;;;;;;;5.55;3.63;;;;;;;16.87;93.21;96229.75;5050718;28;20041;-76
2022/07/12 07:27:01;;;;;;;5.68;3.55;;;;;;;16.80;91.73;96219.50;5037781;28;20402;-77
2022/07/12 07:32:11;;;;;;;7.78;3.25;;;;;;;16.77;95.21;96220.84;5049824;28;20385;-78
2022/07/12 07:34:37;;;;;;;7.15;3.67;;;;;;;16.83;92.67;96228.75;5042088;28;20045;-77
2022/07/12 07:37:03;;;;;;;5.25;3.45;;;;;;;16.77;95.10;96223.50;5048034;28;20045;-77
2022/07/12 07:39:28;;;;;;;5.35;3.00;;;;;;;17.13;91.97;96232.78;5045743;28;20505;-77
2022/07/12 07:41:54;;;;;;;5.78;2.90;;;;;;;17.21;90.89;96229.44;5037187;28;20037;-79
2022/07/12 07:44:19;;;;;;;4.30;2.78;;;;;;;17.56;88.02;96223.75;5038452;28;20041;-78
2022/07/12 07:46:45;;;;;;;4.40;2.90;;;;;;;17.46;87.56;96219.41;5047046;28;20120;-77
2022/07/12 07:49:10;;;;;;;7.10;3.00;;;;;;;17.60;87.11;96224.75;5050396;28;20037;-77
2022/07/12 07:51:35;;;;;;;4.47;2.80;;;;;;;17.61;87.24;96220.97;5045544;28;20045;-78
2022/07/12 07:54:02;;;;;;;4.40;2.75;;;;;;;17.46;87.42;96230.06;5042810;28;20461;-78
2022/07/12 07:56:28;;;;;;;8.43;3.10;;;;;;;17.46;88.17;96230.84;5047405;28;20120;-76
2022/07/12 07:58:54;;;;;;;5.20;2.47;;;;;;;17.45;86.49;96229.25;5043312;28;20526;-78
2022/07/12 08:01:20;;;;;;;6.25;2.67;;;;;;;17.61;84.14;96223.63;5057998;28;20033;-78
2022/07/12 08:03:45;;;;;;;4.75;2.60;;;;;;;17.68;83.79;96226.69;5057754;28;20406;-78
2022/07/12 08:06:10;;;;;;;5.43;2.72;;;;;;;17.55;83.43;96222.16;5055803;28;20033;-79
2022/07/12 08:08:36;;;;;;;7.65;2.95;;;;;;;17.63;83.00;96230.25;5051020;28;20041;-77
2022/07/12 08:11:01;;;;;;;6.68;2.92;;;;;;;17.74;81.48;96228.19;5047528;28;20038;-77
2022/07/12 08:13:27;;;;;;;5.15;2.65;;;;;;;17.84;81.77;96224.50;5052232;28;20067;-78
2022/07/12 08:15:52;;;;;;;5.35;2.50;;;;;;;17.98;81.83;96221.84;5051872;28;20056;-76
2022/07/12 08:18:18;;;;;;;5.63;2.80;;;;;;;18.12;80.28;96235.91;5045990;28;20076;-77
2022/07/12 08:20:43;;;;;;;4.97;2.60;;;;;;;18.21;80.28;96232.56;5049568;28;20487;-79
2022/07/12 08:23:10;;;;;;;4.43;2.50;;;;;;;18.27;77.89;96236.66;5052380;28;20036;-77
2022/07/12 08:25:35;;;;;;;4.80;2.22;;;;;;;18.34;77.28;96231.72;5047276;28;20037;-84
2022/07/12 08:28:00;;;;;;;3.83;2.35;;;;;;;18.58;74.08;96241.31;5046380;28;20056;-77
2022/07/12 08:30:26;;;;;;;4.18;2.70;;;;;;;18.58;74.39;96235.97;5051989;28;20037;-77
2022/07/12 08:32:52;;;;;;;5.40;2.40;;;;;;;18.55;73.78;96236.56;5044958;28;20044;-77
2022/07/12 08:35:26;;;;;;;4.20;2.50;;;;;;;18.64;74.34;96232.88;5048352;28;20502;-78
2022/07/12 08:37:52;;;;;;;4.82;2.20;;;;;;;18.82;72.83;96236.44;5049453;28;20491;-78
2022/07/12 08:40:17;;;;;;;4.30;2.58;;;;;;;19.06;70.85;96238.00;5045666;28;20044;-77
2022/07/12 08:42:45;;;;;;;3.50;2.17;;;;;;;19.11;70.49;96243.22;5047297;28;20049;-78
2022/07/12 08:45:10;;;;;;;4.00;2.25;;;;;;;19.15;67.86;96244.19;5051512;28;20045;-78
2022/07/12 08:47:37;;;;;;;3.50;2.20;;;;;;;19.20;68.94;96246.72;5051583;28;20517;-77
2022/07/12 08:50:18;;;;;;;3.60;2.42;;;;;;;19.33;68.01;96249.63;5053213;28;20044;-77
2022/07/12 08:52:45;;;;;;;4.35;2.20;;;;;;;19.42;68.73;96247.75;5054480;28;20033;-78
2022/07/12 08:55:26;;;;;;;5.20;2.30;;;;;;;19.56;67.59;96237.75;5053713;28;20056;-79
2022/07/12 08:57:53;;;;;;;2.78;2.20;;;;;;;19.66;68.04;96241.25;5053731;28;20041;-79
2022/07/12 09:00:19;;;;;;;3.67;1.83;;;;;;;19.90;69.08;96241.66;5049052;28;20098;-78
2022/07/12 09:02:49;;;;;;;4.10;2.30;;;;;;;19.83;68.24;96246.66;5052297;28;20045;-78
2022/07/12 09:05:25;;;;;;;5.63;2.60;;;;;;;19.94;68.09;96238.34;5044822;28;20036;-78
2022/07/12 09:08:00;;;;;;;4.13;2.15;;;;;;;20.02;67.49;96253.63;5041625;28;20044;-77
2022/07/12 09:10:26;;;;;;;4.28;2.00;;;;;;;19.95;65.46;96250.63;5044900;28;20045;-77
2022/07/12 09:12:51;;;;;;;4.80;2.05;;;;;;;19.94;65.72;96241.03;5048176;28;20486;-78
2022/07/12 09:15:21;;;;;;;2.58;1.75;;;;;;;20.00;64.66;96250.50;5033453;28;20769;-78
2022/07/12 09:17:58;;;;;;;3.72;2.55;;;;;;;20.01;61.49;96246.69;5044742;28;20032;-77
2022/07/12 09:20:29;;;;;;;4.32;2.42;;;;;;;20.13;63.06;96249.56;5041398;28;20521;-78
2022/07/12 09:22:57;;;;;;;6.07;2.20;;;;;;;20.00;62.86;96250.50;5037643;28;20085;-78
2022/07/12 09:25:23;;;;;;;5.80;2.58;;;;;;;19.76;62.23;96251.66;5046140;28;20691;-78
2022/07/12 09:27:57;;;;;;;5.65;2.28;;;;;;;19.81;63.00;96246.19;5045126;28;20047;-77
2022/07/12 09:30:25;;;;;;;6.45;2.20;;;;;;;19.84;63.34;96253.59;5047609;28;20044;-78
2022/07/12 09:38:26;;;;;;;3.08;1.90;;;;;;;20.14;64.00;96245.78;5038926;28;20044;-78
2022/07/12 09:40:53;;;;;;;2.78;1.90;;;;;;;20.34;63.31;96254.28;5043342;28;20049;-78
2022/07/12 09:43:19;;;;;;;4.97;2.30;;;;;;;20.54;62.87;96259.00;5045803;28;20136;-78
2022/07/12 09:45:48;;;;;;;6.13;2.10;;;;;;;20.41;62.72;96259.94;5031941;28;20037;-78
2022/07/12 09:48:15;;;;;;;4.55;2.03;;;;;;;20.55;63.95;96265.13;5042029;28;20142;-78
2022/07/12 09:50:45;;;;;;;3.30;2.10;;;;;;;20.69;61.27;96265.78;5049904;28;20064;-77
2022/07/12 09:53:16;;;;;;;3.17;2.20;;;;;;;20.65;60.17;96264.03;5048868;28;20048;-79
2022/07/12 09:55:43;;;;;;;3.90;2.10;;;;;;;20.70;62.42;96255.88;5051431;28;20135;-79
2022/07/12 09:58:13;;;;;;;3.72;2.10;;;;;;;20.93;61.81;96254.59;5046221;28;20179;-77
2022/07/12 10:00:38;;;;;;;5.88;1.92;;;;;;;20.97;62.49;96264.66;5050057;28;20044;-78
2022/07/12 10:03:05;;;;;;;2.95;1.80;;;;;;;21.25;63.08;96255.13;5047850;28;20033;-78
2022/07/12 10:05:33;;;;;;;2.97;1.85;;;;;;;21.25;60.43;96271.19;5039822;28;20415;-78
2022/07/12 10:08:00;;;;;;;3.67;1.92;;;;;;;21.22;61.48;96266.47;5045282;28;20029;-77
2022/07/12 10:10:27;;;;;;;2.65;1.73;;;;;;;21.07;62.04;96264.31;5047141;28;20037;-77
2022/07/12 10:12:53;;;;;;;2.85;2.00;;;;;;;21.39;60.52;96264.84;5049134;28;20041;-77
2022/07/12 10:15:22;;;;;;;3.30;1.90;;;;;;;21.29;60.56;96272.13;5038950;28;20506;-77
2022/07/12 10:17:54;;;;;;;2.40;1.80;;;;;;;21.26;60.20;96262.06;5047044;28;20214;-80
2022/07/12 10:20:24;;;;;;;3.00;1.95;;;;;;;21.50;60.28;96266.06;5044453;28;20045;-79
2022/07/12 10:23:16;;;;;;;2.42;1.80;;;;;;;21.81;58.68;96275.75;5046160;28;20044;-83
2022/07/12 10:25:42;;;;;;;2.10;1.65;;;;;;;21.67;58.60;96270.59;5043473;28;20406;-81
2022/07/12 10:28:08;;;;;;;2.42;1.92;;;;;;;21.45;58.97;96268.94;5042620;28;20419;-80
2022/07/12 10:30:45;;;;;;;4.60;2.10;;;;;;;21.50;59.66;96266.06;5049004;28;20045;-79
2022/07/12 10:33:21;;;;;;;2.97;1.85;;;;;;;21.25;60.80;96271.19;5052073;28;20089;-77
2022/07/12 10:36:00;;;;;;;3.55;1.90;;;;;;;21.43;60.02;96271.94;5045803;28;20065;-77
2022/07/12 10:38:26;;;;;;;2.33;1.77;;;;;;;22.02;59.23;96264.25;5048292;28;20052;-77
2022/07/12 10:40:53;;;;;;;3.10;1.73;;;;;;;22.29;56.23;96258.41;5042824;28;20037;-76
2022/07/12 10:46:21;;;;;;;4.65;2.00;;;;;;;22.37;55.92;96254.13;5040262;28;20049;-77
2022/07/12 10:48:47;;;;;;;2.70;1.90;;;;;;;22.72;55.33;96264.56;5042143;28;20038;-77
2022/07/12 10:51:20;;;;;;;2.22;1.63;;;;;;;22.66;55.45;96266.66;5046833;28;20038;-77
2022/07/12 10:53:48;;;;;;;3.15;1.77;;;;;;;22.51;56.03;96272.63;5040857;28;20129;-79
2022/07/12 10:56:22;;;;;;;2.20;1.70;;;;;;;21.91;56.65;96264.66;5044432;28;20037;-76
2022/07/12 10:58:47;;;;;;;;;;;;;;;22.04;57.69;96262.84;5046276;28;20047;-78
2022/07/12 11:01:20;;;;;;;3.50;2.13;;;;;;;22.19;57.66;96253.44;5046010;28;19925;-75
2022/07/12 11:04:02;;;;;;;2.13;1.70;;;;;;;22.75;55.66;96253.16;5048366;28;20041;-79
2022/07/12 11:06:28;;;;;;;7.20;1.98;;;;;;;22.57;54.00;96257.91;5033372;28;20048;-76
2022/07/12 11:08:59;;;;;;;2.50;1.83;;;;;;;23.58;54.66;96255.94;5042374;28;22445;-78
2022/07/12 11:11:33;;;;;;;2.63;1.80;;;;;;;23.50;51.62;96256.84;5041794;28;20102;-78
2022/07/12 11:14:00;;;;;;;3.08;1.65;;;;;;;23.17;52.85;96255.00;5048453;28;20094;-77
2022/07/12 11:16:26;;;;;;;2.33;1.60;;;;;;;22.69;51.73;96254.50;5045948;28;20128;-77
2022/07/12 11:18:53;;;;;;;2.00;1.60;;;;;;;22.81;52.09;96259.13;5039217;28;20037;-77
2022/07/12 11:21:19;;;;;;;2.70;1.80;;;;;;;23.10;53.37;96257.41;5047339;28;20057;-77
2022/07/12 11:23:45;;;;;;;6.47;1.63;;;;;;;23.15;50.97;96260.69;5046218;28;20064;-77
2022/07/12 11:26:12;;;;;;;2.33;1.70;;;;;;;23.79;48.42;96260.41;5049634;28;20388;-77
2022/07/12 11:28:40;;;;;;;3.25;1.60;;;;;;;25.02;48.56;96260.13;5044749;28;20503;-78
2022/07/12 11:31:08;;;;;;;2.10;1.70;;;;;;;25.30;45.34;96248.53;5044673;28;20045;-76
2022/07/12 11:33:36;;;;;;;2.63;1.60;;;;;;;25.62;43.15;96248.56;5049617;28;20045;-77
2022/07/12 11:36:07;;;;;;;2.13;1.50;;;;;;;26.19;41.85;96237.50;5047670;28;20037;-77
2022/07/12 11:38:34;;;;;;;2.97;1.50;;;;;;;24.86;45.37;96235.09;5044377;28;20037;-77
2022/07/12 11:41:02;;;;;;;3.30;1.70;;;;;;;24.76;46.69;96235.59;5046448;28;20041;-80